createdAt,value
2019-04-20T00:01:12.535Z,101624.36
2019-04-20T00:06:15.445Z,101618.41
2019-04-20T00:11:26.230Z,101626.37
2019-04-20T00:16:25.167Z,101630.34
2019-04-20T00:21:42.847Z,101623.58
2019-04-20T00:27:15.888Z,101616.45
2019-04-20T00:32:00.556Z,101610.48
2019-04-20T00:36:54.044Z,101608.89
2019-04-20T00:42:03.433Z,101606.30
2019-04-20T00:47:13.337Z,101598.38
2019-04-20T00:52:35.331Z,101604.34
2019-04-20T00:57:22.452Z,101599.56
2019-04-20T01:02:32.715Z,101605.12
2019-04-20T01:07:39.404Z,101607.12
2019-04-20T01:12:39.218Z,101607.52
2019-04-20T01:17:43.062Z,101605.95
2019-04-20T01:22:55.971Z,101604.16
2019-04-20T01:28:08.113Z,101602.56
2019-04-20T01:33:14.866Z,101607.33
2019-04-20T01:38:22.296Z,101608.91
2019-04-20T01:43:07.970Z,101607.52
2019-04-20T01:48:15.110Z,101610.93
2019-04-20T01:53:30.207Z,101611.33
2019-04-20T01:58:49.178Z,101608.55
2019-04-20T02:03:44.819Z,101610.33
2019-04-20T02:08:46.286Z,101606.75
2019-04-20T02:13:56.616Z,101607.73
2019-04-20T02:19:10.812Z,101606.34
2019-04-20T02:24:04.253Z,101609.55
2019-04-20T02:29:33.687Z,101609.34
2019-04-20T02:34:51.286Z,101600.80
2019-04-20T02:45:05.116Z,101593.45
2019-04-20T02:55:10.847Z,101594.64
2019-04-20T03:00:18.235Z,101595.44
2019-04-20T03:04:50.916Z,101593.84
2019-04-20T03:10:05.522Z,101593.64
2019-04-20T03:15:11.179Z,101592.84
2019-04-20T03:20:22.125Z,101587.70
2019-04-20T03:25:49.725Z,101578.36
2019-04-20T03:36:12.509Z,101587.30
2019-04-20T03:41:01.176Z,101590.67
2019-04-20T03:45:59.598Z,101587.89
2019-04-20T03:51:23.612Z,101591.07
2019-04-20T03:56:32.098Z,101589.08
2019-04-20T04:02:04.534Z,101591.66
2019-04-20T04:06:33.520Z,101589.30
2019-04-20T04:11:47.152Z,101597.02
2019-04-20T04:16:42.195Z,101596.06
2019-04-20T04:21:52.427Z,101600.83
2019-04-20T04:27:00.475Z,101602.80
2019-04-20T04:32:20.675Z,101602.02
2019-04-20T04:37:17.603Z,101608.38
2019-04-20T04:42:22.341Z,101613.73
2019-04-20T04:47:09.839Z,101608.17
2019-04-20T04:52:15.515Z,101610.35
2019-04-20T04:57:16.203Z,101617.11
2019-04-20T05:02:23.623Z,101622.66
2019-04-20T05:07:40.049Z,101626.04
2019-04-20T05:12:34.159Z,101626.04
2019-04-20T05:17:57.333Z,101633.59
2019-04-20T05:23:06.078Z,101636.96
2019-04-20T05:28:18.049Z,101637.56
2019-04-20T05:33:21.368Z,101640.93
2019-04-20T05:38:41.764Z,101637.56
2019-04-20T05:43:38.712Z,101636.96
2019-04-20T05:48:50.973Z,101649.47
2019-04-20T05:53:50.481Z,101639.15
2019-04-20T05:58:56.965Z,101643.91
2019-04-20T06:04:01.650Z,101641.73
2019-04-20T06:09:12.361Z,101644.31
2019-04-20T06:14:07.137Z,101645.31
2019-04-20T06:19:26.386Z,101649.69
2019-04-20T06:29:26.380Z,101641.34
2019-04-20T06:39:49.364Z,101643.13
2019-04-20T06:44:46.386Z,101644.92
2019-04-20T06:49:52.501Z,101642.91
2019-04-20T06:55:06.937Z,101640.31
2019-04-20T07:00:15.453Z,101643.33
2019-04-20T07:05:22.541Z,101649.68
2019-04-20T07:10:44.026Z,101646.45
2019-04-20T07:15:30.210Z,101650.05
2019-04-20T07:21:12.661Z,101644.69
2019-04-20T07:26:15.101Z,101651.23
2019-04-20T07:31:08.464Z,101649.47
2019-04-20T07:36:22.661Z,101638.76
2019-04-20T07:41:26.325Z,101642.32
2019-04-20T07:46:43.954Z,101647.68
2019-04-20T07:51:16.138Z,101644.30
2019-04-20T07:56:37.525Z,101644.70
2019-04-20T08:01:54.753Z,101646.70
2019-04-20T08:06:42.167Z,101642.73
2019-04-20T08:12:02.725Z,101642.14
2019-04-20T08:17:14.096Z,101646.30
2019-04-20T08:22:15.537Z,101644.92
2019-04-20T08:27:07.973Z,101642.52
2019-04-20T08:32:43.904Z,101638.14
2019-04-20T08:38:01.816Z,101641.92
2019-04-20T08:43:02.889Z,101638.13
2019-04-20T08:48:02.788Z,101632.77
2019-04-20T08:53:15.909Z,101628.20
2019-04-20T08:57:49.879Z,101627.01
2019-04-20T09:03:00.917Z,101622.23
2019-04-20T09:08:08.118Z,101619.06
2019-04-20T09:13:15.890Z,101609.53
2019-04-20T09:18:31.272Z,101609.10
2019-04-20T09:23:42.288Z,101605.52
2019-04-20T09:28:56.762Z,101602.14
2019-04-20T09:34:07.524Z,101600.95
2019-04-20T09:39:11.456Z,101598.17
2019-04-20T09:44:04.923Z,101593.60
2019-04-20T09:49:20.100Z,101593.21
2019-04-20T09:54:31.019Z,101584.66
2019-04-20T09:59:38.263Z,101586.05
2019-04-20T10:04:24.098Z,101581.09
2019-04-20T10:09:32.611Z,101578.30
2019-04-20T10:14:33.147Z,101569.36
2019-04-20T10:19:39.416Z,101569.36
2019-04-20T10:24:42.433Z,101567.38
2019-04-20T10:29:45.986Z,101572.54
2019-04-20T10:34:50.634Z,101559.02
2019-04-20T10:39:54.488Z,101556.23
2019-04-20T10:45:00.359Z,101566.40
2019-04-20T10:50:05.287Z,101550.30
2019-04-20T10:55:10.252Z,101555.67
2019-04-20T11:00:15.644Z,101547.12
2019-04-20T11:05:20.404Z,101537.98
2019-04-20T11:10:28.587Z,101534.20
2019-04-20T11:15:30.385Z,101529.23
2019-04-20T11:20:35.263Z,101533.41
2019-04-20T11:25:40.031Z,101526.25
2019-04-20T11:30:43.890Z,101520.69
2019-04-20T11:35:48.563Z,101515.33
2019-04-20T11:41:03.834Z,101507.15
2019-04-20T11:45:58.457Z,101516.09
2019-04-20T11:51:03.416Z,101501.59
2019-04-20T11:56:14.631Z,101494.03
2019-04-20T12:01:36.921Z,101499.77
2019-04-20T12:06:34.821Z,101487.87
2019-04-20T12:11:53.493Z,101481.08
2019-04-20T12:16:43.805Z,101474.13
2019-04-20T12:21:47.550Z,101466.77
2019-04-20T12:26:51.157Z,101472.34
2019-04-20T12:31:59.133Z,101468.36
2019-04-20T12:37:00.746Z,101447.85
2019-04-20T12:42:07.569Z,101442.69
2019-04-20T12:47:10.058Z,101450.83
2019-04-20T12:52:14.450Z,101443.44
2019-04-20T12:57:18.595Z,101447.81
2019-04-20T13:02:23.176Z,101449.60
2019-04-20T13:07:27.101Z,101440.66
2019-04-20T13:12:42.578Z,101439.86
2019-04-20T13:17:47.986Z,101421.57
2019-04-20T13:22:51.239Z,101423.56
2019-04-20T13:27:54.845Z,101422.36
2019-04-20T13:32:59.443Z,101421.57
2019-04-20T13:38:04.419Z,101409.24
2019-04-20T13:43:08.120Z,101411.43
2019-04-20T13:48:12.848Z,101397.67
2019-04-20T13:53:17.043Z,101399.68
2019-04-20T13:58:38.910Z,101390.13
2019-04-20T14:03:44.915Z,101374.23
2019-04-20T14:08:49.462Z,101370.84
2019-04-20T14:13:56.804Z,101362.85
2019-04-20T14:18:58.797Z,101352.11
2019-04-20T14:24:04.191Z,101348.71
2019-04-20T14:29:07.504Z,101350.47
2019-04-20T14:34:11.027Z,101339.72
2019-04-20T14:39:14.440Z,101337.12
2019-04-20T14:44:17.902Z,101326.38
2019-04-20T14:49:21.366Z,101321.36
2019-04-20T14:54:25.576Z,101313.40
2019-04-20T14:59:31.655Z,101314.38
2019-04-20T15:04:36.949Z,101301.06
2019-04-20T15:09:40.729Z,101311.36
2019-04-20T15:14:44.930Z,101307.38
2019-04-20T15:19:53.771Z,101306.17
2019-04-20T15:24:57.710Z,101294.83
2019-04-20T15:30:02.717Z,101274.61
2019-04-20T15:35:08.916Z,101285.88
2019-04-20T15:40:13.125Z,101287.42
2019-04-20T15:45:16.967Z,101276.28
2019-04-20T15:50:20.503Z,101277.92
2019-04-20T15:55:27.459Z,101273.55
2019-04-20T16:00:29.153Z,101268.78
2019-04-20T16:05:45.038Z,101263.59
2019-04-20T16:10:48.828Z,101260.80
2019-04-20T16:15:53.710Z,101252.45
2019-04-20T16:21:05.531Z,101251.47
2019-04-20T16:26:17.593Z,101251.68
2019-04-20T16:31:22.676Z,101250.53
2019-04-20T16:36:26.444Z,101237.37
2019-04-20T16:41:30.636Z,101213.10
2019-04-20T16:46:34.296Z,101213.10
2019-04-20T16:51:38.812Z,101225.94
2019-04-20T16:56:42.691Z,101221.36
2019-04-20T17:01:46.639Z,101214.58
2019-04-20T17:07:08.139Z,101210.41
2019-04-20T17:12:12.055Z,101216.96
2019-04-20T17:17:15.795Z,101212.19
2019-04-20T17:22:19.334Z,101210.16
2019-04-20T17:27:27.158Z,101206.42
2019-04-20T17:32:33.575Z,101205.44
2019-04-20T17:37:41.879Z,101204.84
2019-04-20T17:42:53.050Z,101204.64
2019-04-20T17:48:07.348Z,101208.03
2019-04-20T17:53:07.451Z,101207.23
2019-04-20T17:57:59.412Z,101209.64
2019-04-20T18:03:24.535Z,101208.05
2019-04-20T18:08:31.116Z,101213.08
2019-04-20T18:13:21.727Z,101215.48
2019-04-20T18:18:39.852Z,101219.47
2019-04-20T18:23:37.494Z,101219.47
2019-04-20T18:28:58.977Z,101227.81
2019-04-20T18:33:42.583Z,101230.60
2019-04-20T18:38:55.315Z,101226.62
2019-04-20T18:43:55.990Z,101230.80
2019-04-20T18:49:13.622Z,101234.75
2019-04-20T18:54:08.442Z,101229.38
2019-04-20T18:59:07.163Z,101228.94
2019-04-20T19:04:12.073Z,101229.73
2019-04-20T19:09:21.474Z,101236.09
2019-04-20T19:14:40.093Z,101237.08
2019-04-20T19:19:48.475Z,101237.08
2019-04-20T19:24:49.818Z,101239.27
2019-04-20T19:30:07.128Z,101237.48
2019-04-20T19:35:06.842Z,101245.84
2019-04-20T19:40:15.950Z,101239.73
2019-04-20T19:45:37.285Z,101244.09
2019-04-20T19:50:57.640Z,101239.34
2019-04-20T19:55:40.515Z,101237.75
2019-04-20T20:00:48.416Z,101227.22
2019-04-20T20:05:52.355Z,101229.02
2019-04-20T20:10:58.222Z,101234.23
2019-04-20T20:16:09.488Z,101231.26
2019-04-20T20:21:21.854Z,101229.67
2019-04-20T20:26:22.381Z,101229.09
2019-04-20T20:31:23.511Z,101232.47
2019-04-20T20:36:23.853Z,101238.67
2019-04-20T20:41:31.954Z,101236.10
2019-04-20T20:46:39.571Z,101232.91
2019-04-20T20:51:55.901Z,101233.27
2019-04-20T20:56:52.203Z,101238.48
2019-04-20T21:01:54.043Z,101239.48
2019-04-20T21:06:52.804Z,101241.46
2019-04-20T21:12:00.650Z,101243.40
2019-04-20T21:17:10.263Z,101244.00
2019-04-20T21:22:14.355Z,101234.85
2019-04-20T21:27:16.698Z,101241.22
2019-04-20T21:32:19.735Z,101235.89
2019-04-20T21:37:23.990Z,101235.26
2019-04-20T21:42:29.064Z,101237.71
2019-04-20T21:47:36.293Z,101237.71
2019-04-20T21:52:43.048Z,101240.30
2019-04-20T21:57:50.162Z,101243.33
2019-04-20T22:02:56.208Z,101236.17
2019-04-20T22:08:00.592Z,101238.95
2019-04-20T22:13:00.762Z,101233.00
2019-04-20T22:18:09.300Z,101230.03
2019-04-20T22:23:23.186Z,101230.46
2019-04-20T22:28:16.021Z,101231.47
2019-04-20T22:33:40.002Z,101229.69
2019-04-20T22:39:00.251Z,101226.68
2019-04-20T22:44:11.606Z,101224.30
2019-04-20T22:49:28.134Z,101208.92
2019-04-20T22:54:34.548Z,101208.92
2019-04-20T22:59:25.414Z,101215.02
2019-04-20T23:04:26.690Z,101212.04
2019-04-20T23:09:34.123Z,101206.28
2019-04-20T23:14:36.352Z,101197.14
2019-04-20T23:19:48.378Z,101189.83
2019-04-20T23:24:45.182Z,101185.05
2019-04-20T23:29:49.186Z,101175.31
2019-04-20T23:34:59.068Z,101182.87
2019-04-20T23:39:58.041Z,101174.33
2019-04-20T23:45:13.567Z,101172.94
2019-04-20T23:50:38.219Z,101167.77
2019-04-20T23:55:23.755Z,101164.80
